Time;durP1;ratioP1;P1;durP2;ratioP2;P2;SDS_P1;SDS_P2;PMS_P1;PMS_P2;Temp;Humidity;BMP_temperature;BMP_pressure;BME280_temperature;BME280_humidity;BME280_pressure;Samples;Min_cycle;Max_cycle;Signal;HPM_P1;HPM_P2
2023/02/17 00:00:55;;;;;;;145.95;82.88;;;;;;;;;;4994524;28;20085;-66
2023/02/17 00:03:20;;;;;;;86.93;49.17;;;;;;;;;;4977058;28;20038;-66
2023/02/17 00:05:46;;;;;;;87.80;49.58;;;;;;;;;;4994967;28;20352;-66
2023/02/17 00:08:11;;;;;;;114.20;71.53;;;;;;;;;;4994934;28;20026;-66
2023/02/17 00:10:36;;;;;;;106.93;63.80;;;;;;;;;;4994758;28;20533;-66
2023/02/17 00:13:02;;;;;;;101.32;60.13;;;;;;;;;;4994337;28;20367;-66
2023/02/17 00:15:27;;;;;;;106.05;62.97;;;;;;;;;;4977061;28;20038;-66
2023/02/17 00:17:53;;;;;;;74.28;42.90;;;;;;;;;;4994567;28;20033;-67
2023/02/17 00:20:18;;;;;;;86.82;50.20;;;;;;;;;;4994538;28;20533;-66
2023/02/17 00:22:44;;;;;;;81.65;46.22;;;;;;;;;;4992927;28;20440;-67
2023/02/17 00:25:09;;;;;;;90.70;53.58;;;;;;;;;;4977144;28;20520;-67
2023/02/17 00:27:34;;;;;;;150.20;86.90;;;;;;;;;;4995736;28;20026;-67
2023/02/17 00:29:59;;;;;;;110.78;62.70;;;;;;;;;;4963445;28;20026;-68
2023/02/17 00:32:25;;;;;;;84.05;48.65;;;;;;;;;;4996535;28;20489;-68
2023/02/17 00:34:51;;;;;;;79.25;46.33;;;;;;;;;;4978676;28;20034;-66
2023/02/17 00:37:16;;;;;;;72.35;42.40;;;;;;;;;;4963370;28;20023;-66
2023/02/17 00:39:42;;;;;;;66.85;39.05;;;;;;;;;;4995233;28;20391;-66
2023/02/17 00:42:09;;;;;;;74.50;44.92;;;;;;;;;;4993777;28;20038;-66
2023/02/17 00:44:34;;;;;;;76.47;45.10;;;;;;;;;;4976662;28;20806;-66
2023/02/17 00:46:59;;;;;;;80.05;47.80;;;;;;;;;;4994352;28;20054;-66
2023/02/17 00:49:25;;;;;;;68.22;40.63;;;;;;;;;;4975740;28;20508;-65
2023/02/17 00:51:51;;;;;;;68.97;39.38;;;;;;;;;;4975840;28;20121;-65
2023/02/17 00:54:17;;;;;;;66.47;36.38;;;;;;;;;;4993419;28;20030;-65
2023/02/17 00:56:43;;;;;;;64.05;37.63;;;;;;;;;;4993805;28;20144;-65
2023/02/17 00:59:08;;;;;;;61.05;37.03;;;;;;;;;;4993463;28;20026;-65
2023/02/17 01:01:34;;;;;;;67.60;39.33;;;;;;;;;;4975712;28;20065;-65
2023/02/17 01:04:00;;;;;;;61.80;35.70;;;;;;;;;;4975518;28;20129;-65
2023/02/17 01:06:30;;;;;;;64.18;35.60;;;;;;;;;;4993755;28;20030;-65
2023/02/17 01:08:56;;;;;;;61.35;35.28;;;;;;;;;;4976563;28;20034;-64
2023/02/17 01:11:26;;;;;;;64.95;35.45;;;;;;;;;;4994733;28;20033;-64
2023/02/17 01:13:51;;;;;;;63.03;35.28;;;;;;;;;;4976178;28;20417;-64
2023/02/17 01:16:22;;;;;;;63.60;35.38;;;;;;;;;;4993334;28;20030;-64
2023/02/17 01:18:48;;;;;;;62.17;34.95;;;;;;;;;;4959830;28;20045;-65
2023/02/17 01:21:19;;;;;;;62.47;34.45;;;;;;;;;;4993479;28;20027;-64
2023/02/17 01:23:48;;;;;;;62.33;34.35;;;;;;;;;;4975769;28;20030;-70
2023/02/17 01:26:15;;;;;;;63.40;36.05;;;;;;;;;;4975739;28;20038;-66
2023/02/17 01:28:41;;;;;;;62.88;33.88;;;;;;;;;;4993017;28;20062;-67
2023/02/17 01:31:07;;;;;;;68.60;37.10;;;;;;;;;;4993619;28;20574;-67
2023/02/17 01:33:32;;;;;;;61.17;34.08;;;;;;;;;;4993248;28;20026;-67
2023/02/17 01:36:02;;;;;;;59.17;33.85;;;;;;;;;;4993502;28;20441;-67
2023/02/17 01:38:27;;;;;;;58.47;32.88;;;;;;;;;;4993108;28;20030;-66
2023/02/17 01:40:53;;;;;;;63.15;34.13;;;;;;;;;;4993396;28;20479;-66
2023/02/17 01:43:20;;;;;;;59.53;32.78;;;;;;;;;;4995645;28;20033;-66
2023/02/17 01:45:52;;;;;;;62.03;33.38;;;;;;;;;;4994941;28;20371;-66
2023/02/17 01:48:20;;;;;;;58.45;32.88;;;;;;;;;;4977905;28;20383;-66
2023/02/17 01:51:07;;;;;;;59.10;35.45;;;;;;;;;;4977629;28;20466;-66
2023/02/17 01:53:35;;;;;;;63.13;34.03;;;;;;;;;;4975958;28;20050;-66
2023/02/17 01:56:01;;;;;;;65.90;35.08;;;;;;;;;;4992566;28;20038;-66
2023/02/17 01:58:27;;;;;;;60.65;33.63;;;;;;;;;;4958968;28;20058;-66
2023/02/17 02:00:55;;;;;;;57.05;33.15;;;;;;;;;;4974938;28;20032;-65
2023/02/17 02:03:21;;;;;;;57.80;33.78;;;;;;;;;;4991955;28;20541;-65
2023/02/17 02:05:46;;;;;;;61.17;34.70;;;;;;;;;;4958282;28;20042;-66
2023/02/17 02:08:12;;;;;;;63.97;34.90;;;;;;;;;;4992720;28;20057;-65
2023/02/17 02:10:37;;;;;;;58.50;33.35;;;;;;;;;;4974884;28;20490;-65
2023/02/17 02:13:04;;;;;;;60.30;33.67;;;;;;;;;;4974859;28;20034;-63
2023/02/17 02:15:53;;;;;;;58.58;33.85;;;;;;;;;;4974988;28;20033;-63
2023/02/17 02:18:25;;;;;;;62.53;32.97;;;;;;;;;;4992460;28;20049;-63
2023/02/17 02:21:09;;;;;;;57.28;32.35;;;;;;;;;;4975249;28;20449;-64
2023/02/17 02:23:48;;;;;;;59.45;33.08;;;;;;;;;;4992554;28;20466;-63
2023/02/17 02:26:34;;;;;;;61.78;32.95;;;;;;;;;;4975458;28;20137;-63
2023/02/17 02:29:00;;;;;;;59.83;32.00;;;;;;;;;;4975048;28;20081;-64
2023/02/17 02:31:41;;;;;;;64.30;35.10;;;;;;;;;;4974704;28;20077;-64
2023/02/17 02:34:15;;;;;;;58.25;32.28;;;;;;;;;;4975131;28;20125;-64
2023/02/17 02:36:53;;;;;;;59.08;32.30;;;;;;;;;;4974863;28;20030;-64
2023/02/17 02:39:20;;;;;;;63.22;33.20;;;;;;;;;;4974999;28;20035;-64
2023/02/17 02:41:48;;;;;;;61.78;35.75;;;;;;;;;;4976063;28;20026;-63
2023/02/17 02:44:16;;;;;;;57.65;32.30;;;;;;;;;;4976631;28;20018;-64
2023/02/17 02:46:41;;;;;;;63.42;34.72;;;;;;;;;;4993651;28;20034;-63
2023/02/17 02:49:07;;;;;;;58.88;33.22;;;;;;;;;;4960155;28;20113;-63
2023/02/17 02:51:40;;;;;;;57.13;32.30;;;;;;;;;;4976967;28;20031;-64
2023/02/17 02:54:21;;;;;;;59.35;33.08;;;;;;;;;;4976097;28;20031;-66
2023/02/17 02:56:50;;;;;;;58.75;33.20;;;;;;;;;;4974348;28;20042;-66
2023/02/17 02:59:32;;;;;;;58.30;32.00;;;;;;;;;;4958268;28;20037;-66
2023/02/17 03:02:07;;;;;;;65.10;33.58;;;;;;;;;;4974188;28;20506;-65
2023/02/17 03:04:35;;;;;;;59.85;32.22;;;;;;;;;;4974154;28;20125;-66
2023/02/17 03:07:19;;;;;;;60.83;33.42;;;;;;;;;;4958628;28;20030;-66
2023/02/17 03:09:47;;;;;;;62.47;33.30;;;;;;;;;;4958068;28;20498;-66
2023/02/17 03:12:12;;;;;;;62.45;33.40;;;;;;;;;;4957957;28;20482;-66
2023/02/17 03:14:41;;;;;;;58.97;34.00;;;;;;;;;;4977144;28;20036;-66
2023/02/17 03:17:06;;;;;;;55.67;31.67;;;;;;;;;;4978745;28;20053;-66
2023/02/17 03:19:31;;;;;;;59.58;32.75;;;;;;;;;;4995212;28;20042;-64
2023/02/17 03:22:04;;;;;;;57.35;31.90;;;;;;;;;;4977616;28;20026;-64
2023/02/17 03:24:32;;;;;;;68.13;39.03;;;;;;;;;;4978140;28;20496;-65
2023/02/17 03:26:58;;;;;;;69.32;40.85;;;;;;;;;;4961423;28;20042;-64
2023/02/17 03:29:25;;;;;;;59.03;32.58;;;;;;;;;;4977987;28;20034;-65
2023/02/17 03:31:50;;;;;;;60.33;32.30;;;;;;;;;;4978219;28;20034;-64
2023/02/17 03:34:16;;;;;;;58.97;32.15;;;;;;;;;;4996091;28;20474;-63
2023/02/17 03:36:41;;;;;;;61.90;32.97;;;;;;;;;;4997584;28;20027;-64
2023/02/17 03:39:06;;;;;;;62.08;32.78;;;;;;;;;;4980331;28;20525;-63
2023/02/17 03:41:32;;;;;;;62.53;33.53;;;;;;;;;;4980557;28;20118;-63
2023/02/17 03:43:58;;;;;;;59.65;32.95;;;;;;;;;;4997514;28;20029;-63
2023/02/17 03:46:23;;;;;;;57.40;31.17;;;;;;;;;;4978167;28;20403;-63
2023/02/17 03:48:49;;;;;;;57.58;31.17;;;;;;;;;;4978021;28;20114;-63
2023/02/17 03:51:19;;;;;;;58.85;30.90;;;;;;;;;;4995724;28;20165;-63
2023/02/17 03:53:45;;;;;;;73.32;30.55;;;;;;;;;;4995734;28;20161;-63
2023/02/17 03:56:10;;;;;;;58.58;31.02;;;;;;;;;;4995299;28;20736;-64
2023/02/17 03:58:36;;;;;;;60.55;31.73;;;;;;;;;;4977488;28;20034;-65
2023/02/17 04:01:02;;;;;;;56.33;30.27;;;;;;;;;;4977195;28;20042;-64
2023/02/17 04:03:27;;;;;;;52.22;30.38;;;;;;;;;;4977245;28;20045;-62
2023/02/17 04:05:53;;;;;;;50.47;29.05;;;;;;;;;;4979260;28;20390;-60
2023/02/17 04:08:19;;;;;;;54.95;29.73;;;;;;;;;;4994708;28;20058;-61
2023/02/17 04:10:44;;;;;;;53.20;29.80;;;;;;;;;;4994556;28;20048;-63
2023/02/17 04:13:10;;;;;;;60.67;31.67;;;;;;;;;;4994046;28;20034;-63
2023/02/17 04:15:35;;;;;;;55.40;30.23;;;;;;;;;;4994719;28;20065;-63
2023/02/17 04:18:00;;;;;;;55.78;30.90;;;;;;;;;;4976954;28;20026;-63
2023/02/17 04:20:26;;;;;;;54.45;30.13;;;;;;;;;;4976783;28;20156;-63
2023/02/17 04:22:51;;;;;;;60.03;30.95;;;;;;;;;;4994491;28;20042;-63
2023/02/17 04:25:16;;;;;;;61.45;33.30;;;;;;;;;;4993922;28;20034;-63
2023/02/17 04:27:43;;;;;;;65.65;36.42;;;;;;;;;;4993646;28;20038;-63
2023/02/17 04:30:08;;;;;;;64.22;36.25;;;;;;;;;;4994005;28;20450;-70
2023/02/17 04:32:34;;;;;;;58.17;33.88;;;;;;;;;;4976615;28;20049;-63
2023/02/17 04:34:59;;;;;;;58.53;34.22;;;;;;;;;;4993786;28;20070;-64
2023/02/17 04:37:24;;;;;;;51.75;29.95;;;;;;;;;;4993696;28;20034;-64
2023/02/17 04:39:50;;;;;;;52.65;30.35;;;;;;;;;;4994193;28;20035;-63
2023/02/17 04:42:15;;;;;;;51.78;29.52;;;;;;;;;;4994267;28;20528;-64
2023/02/17 04:44:40;;;;;;;52.58;30.08;;;;;;;;;;4994303;28;20049;-64
2023/02/17 04:47:06;;;;;;;54.00;30.85;;;;;;;;;;4976334;28;20530;-65
2023/02/17 04:49:31;;;;;;;51.97;30.02;;;;;;;;;;4993839;28;20034;-65
2023/02/17 04:51:56;;;;;;;53.45;30.00;;;;;;;;;;4976554;28;20410;-65
2023/02/17 04:54:22;;;;;;;46.28;27.58;;;;;;;;;;4976181;28;20142;-64
2023/02/17 04:56:47;;;;;;;46.88;27.55;;;;;;;;;;4993321;28;20066;-65
2023/02/17 04:59:12;;;;;;;47.25;28.50;;;;;;;;;;4993802;28;20076;-66
2023/02/17 05:01:38;;;;;;;50.67;28.88;;;;;;;;;;4975919;28;20438;-66
2023/02/17 05:04:03;;;;;;;50.67;29.38;;;;;;;;;;4976187;28;20501;-66
2023/02/17 05:06:29;;;;;;;47.95;28.67;;;;;;;;;;4993353;28;20027;-64
2023/02/17 05:08:54;;;;;;;54.83;31.80;;;;;;;;;;4993154;28;20030;-64
2023/02/17 05:11:20;;;;;;;53.80;31.95;;;;;;;;;;4994137;28;20035;-64
2023/02/17 05:13:45;;;;;;;52.88;30.48;;;;;;;;;;4993493;28;20422;-64
2023/02/17 05:16:10;;;;;;;51.92;29.80;;;;;;;;;;4960167;28;20034;-64
2023/02/17 05:18:36;;;;;;;52.05;30.38;;;;;;;;;;4959600;28;20061;-64
2023/02/17 05:21:01;;;;;;;54.38;30.52;;;;;;;;;;4994280;28;20085;-64
2023/02/17 05:23:27;;;;;;;55.05;31.60;;;;;;;;;;4995627;28;20037;-65
2023/02/17 05:25:52;;;;;;;64.18;35.80;;;;;;;;;;4996014;28;20049;-64
2023/02/17 05:28:18;;;;;;;85.38;44.13;;;;;;;;;;4996251;28;20042;-64
2023/02/17 05:30:43;;;;;;;81.85;49.22;;;;;;;;;;4995923;28;20030;-67
2023/02/17 05:33:08;;;;;;;82.80;50.28;;;;;;;;;;4995458;28;20030;-64
2023/02/17 05:35:34;;;;;;;61.67;38.05;;;;;;;;;;4995591;28;20521;-64
2023/02/17 05:37:59;;;;;;;53.88;32.95;;;;;;;;;;4994229;28;20462;-64
2023/02/17 05:40:25;;;;;;;51.55;29.30;;;;;;;;;;4995699;28;20023;-64
2023/02/17 05:42:50;;;;;;;50.20;28.92;;;;;;;;;;4994159;28;20497;-64
2023/02/17 05:45:15;;;;;;;49.72;29.13;;;;;;;;;;4995559;28;20041;-64
2023/02/17 05:47:41;;;;;;;48.53;28.38;;;;;;;;;;4995241;28;20015;-64
2023/02/17 05:50:06;;;;;;;45.88;27.02;;;;;;;;;;4994883;28;20521;-64
2023/02/17 05:52:31;;;;;;;44.92;27.10;;;;;;;;;;4994318;28;20451;-64
2023/02/17 05:54:57;;;;;;;43.95;26.92;;;;;;;;;;4994872;28;20372;-64
2023/02/17 05:57:22;;;;;;;46.95;26.92;;;;;;;;;;4985446;28;20046;-63
2023/02/17 05:59:47;;;;;;;43.78;27.25;;;;;;;;;;4958286;28;20042;-63
2023/02/17 06:02:13;;;;;;;44.72;26.75;;;;;;;;;;4975578;28;20023;-63
2023/02/17 06:04:39;;;;;;;42.28;25.23;;;;;;;;;;4975481;28;20034;-63
2023/02/17 06:07:04;;;;;;;47.00;26.67;;;;;;;;;;4958208;28;20407;-64
2023/02/17 06:09:29;;;;;;;41.80;26.63;;;;;;;;;;4975230;28;20406;-63
2023/02/17 06:11:54;;;;;;;41.47;25.90;;;;;;;;;;4975362;28;20026;-63
2023/02/17 06:14:20;;;;;;;40.30;26.42;;;;;;;;;;4974499;28;20026;-63
2023/02/17 06:16:45;;;;;;;41.95;24.90;;;;;;;;;;4957976;28;20026;-63
2023/02/17 06:19:11;;;;;;;40.13;24.95;;;;;;;;;;4957635;28;20492;-63
2023/02/17 06:21:36;;;;;;;41.00;25.15;;;;;;;;;;4957417;28;20089;-64
2023/02/17 06:24:01;;;;;;;43.20;25.55;;;;;;;;;;4974862;28;20039;-63
2023/02/17 06:26:27;;;;;;;50.72;28.95;;;;;;;;;;4958623;28;20084;-63
2023/02/17 06:28:52;;;;;;;47.22;28.10;;;;;;;;;;4975240;28;20395;-63
2023/02/17 06:31:17;;;;;;;39.03;24.23;;;;;;;;;;4975330;28;20034;-63
2023/02/17 06:33:43;;;;;;;49.83;31.65;;;;;;;;;;4975122;28;20104;-63
2023/02/17 06:36:08;;;;;;;46.78;30.15;;;;;;;;;;4975705;28;20030;-63
2023/02/17 06:38:34;;;;;;;50.10;29.73;;;;;;;;;;4957685;28;20502;-63
2023/02/17 06:40:59;;;;;;;51.53;31.20;;;;;;;;;;4974908;28;20023;-63
2023/02/17 06:43:24;;;;;;;62.03;37.25;;;;;;;;;;4975451;28;20062;-63
2023/02/17 06:45:50;;;;;;;69.60;43.63;;;;;;;;;;4975472;28;20113;-63
2023/02/17 06:48:15;;;;;;;61.15;39.45;;;;;;;;;;4974287;28;20027;-63
2023/02/17 06:50:40;;;;;;;34.08;22.67;;;;;;;;;;4975089;28;20027;-63
2023/02/17 06:53:06;;;;;;;50.13;30.77;;;;;;;;;;4974926;28;20034;-63
2023/02/17 06:55:34;;;;;;;60.05;34.00;;;;;;;;;;4974101;28;20027;-63
2023/02/17 06:57:59;;;;;;;65.28;36.63;;;;;;;;;;4956138;28;20497;-63
2023/02/17 07:00:25;;;;;;;72.97;40.80;;;;;;;;;;4973124;28;20086;-64
2023/02/17 07:02:51;;;;;;;68.88;42.15;;;;;;;;;;4956206;28;20027;-63
2023/02/17 07:05:16;;;;;;;71.80;44.53;;;;;;;;;;4973346;28;20045;-65
2023/02/17 07:07:41;;;;;;;73.93;45.00;;;;;;;;;;4974145;28;20097;-64
2023/02/17 07:10:07;;;;;;;71.57;43.40;;;;;;;;;;4972258;28;20046;-63
2023/02/17 07:12:32;;;;;;;70.28;42.80;;;;;;;;;;4971846;28;20070;-63
2023/02/17 07:14:57;;;;;;;66.65;41.40;;;;;;;;;;4971657;28;20019;-63
2023/02/17 07:17:23;;;;;;;67.25;42.58;;;;;;;;;;4954480;28;20051;-63
2023/02/17 07:19:48;;;;;;;66.28;41.45;;;;;;;;;;4954237;28;20467;-63
2023/02/17 07:22:13;;;;;;;64.43;39.85;;;;;;;;;;4971801;28;20027;-63
2023/02/17 07:24:39;;;;;;;63.28;38.63;;;;;;;;;;4973470;28;20442;-63
2023/02/17 07:27:04;;;;;;;65.53;40.65;;;;;;;;;;4974877;28;20031;-64
2023/02/17 07:29:30;;;;;;;77.15;49.85;;;;;;;;;;4974585;28;20027;-63
2023/02/17 07:31:56;;;;;;;63.13;41.67;;;;;;;;;;4957195;28;20132;-63
2023/02/17 07:34:21;;;;;;;57.45;36.42;;;;;;;;;;4974736;28;20111;-64
2023/02/17 07:36:47;;;;;;;66.80;42.28;;;;;;;;;;4974777;28;20039;-64
2023/02/17 07:39:12;;;;;;;103.07;54.80;;;;;;;;;;4974475;28;20427;-64
2023/02/17 07:41:37;;;;;;;162.18;75.15;;;;;;;;;;4974792;28;20110;-63
2023/02/17 07:44:08;;;;;;;143.40;67.43;;;;;;;;;;4974461;28;20042;-64
2023/02/17 07:46:34;;;;;;;90.70;49.10;;;;;;;;;;4957156;28;20034;-64
2023/02/17 07:48:59;;;;;;;78.38;43.97;;;;;;;;;;4957182;28;20098;-63
2023/02/17 07:51:24;;;;;;;59.80;35.28;;;;;;;;;;4974676;28;20058;-63
2023/02/17 07:53:50;;;;;;;54.38;34.17;;;;;;;;;;4974261;28;20388;-63
2023/02/17 07:56:16;;;;;;;49.72;31.48;;;;;;;;;;4973332;28;20455;-64
2023/02/17 07:58:42;;;;;;;45.08;29.80;;;;;;;;;;4957266;28;20066;-64
2023/02/17 08:01:12;;;;;;;43.92;29.02;;;;;;;;;;4976723;28;20458;-63
2023/02/17 08:03:38;;;;;;;49.25;30.85;;;;;;;;;;4977931;28;20129;-64
2023/02/17 08:06:07;;;;;;;44.33;28.58;;;;;;;;;;4978194;28;20062;-64
2023/02/17 08:14:03;;;;;;;38.63;24.48;;;;;;;;;;4977662;28;20119;-64
2023/02/17 08:16:28;;;;;;;38.58;25.15;;;;;;;;;;4977967;28;20046;-66
2023/02/17 08:19:00;;;;;;;31.02;19.92;;;;;;;;;;4988778;23;20050;-66
2023/02/17 08:21:25;;;;;;;30.50;19.45;;;;;;;;;;4993428;23;20405;-64
2023/02/17 08:23:51;;;;;;;28.38;18.48;;;;;;;;;;5016673;28;20026;-64
2023/02/17 08:28:54;;;;;;;29.23;18.02;;;;;;;;;;5011281;23;20422;-65
2023/02/17 08:31:22;;;;;;;34.25;18.55;;;;;;;;;;4996864;28;20018;-63
2023/02/17 08:33:47;;;;;;;23.40;15.63;;;;;;;;;;4996798;28;20474;-63
2023/02/17 08:36:13;;;;;;;23.35;15.77;;;;;;;;;;5011847;28;20042;-64
2023/02/17 08:38:39;;;;;;;26.67;16.52;;;;;;;;;;4997290;28;20117;-63
2023/02/17 08:41:12;;;;;;;25.95;15.93;;;;;;;;;;4995820;28;20069;-63
2023/02/17 08:43:37;;;;;;;25.20;14.48;;;;;;;;;;4996656;28;20054;-63
2023/02/17 08:46:06;;;;;;;21.92;14.48;;;;;;;;;;4996893;28;20034;-63
2023/02/17 08:48:31;;;;;;;23.08;14.15;;;;;;;;;;4996574;28;20095;-64
2023/02/17 08:50:56;;;;;;;30.65;17.88;;;;;;;;;;4996524;28;20096;-66
2023/02/17 08:53:22;;;;;;;23.20;14.45;;;;;;;;;;4995765;28;20026;-66
2023/02/17 08:55:47;;;;;;;22.67;14.52;;;;;;;;;;4995193;28;20475;-66
2023/02/17 08:58:12;;;;;;;21.20;13.75;;;;;;;;;;4996395;28;20026;-66
2023/02/17 09:00:37;;;;;;;22.63;14.90;;;;;;;;;;4996343;28;20491;-66
2023/02/17 09:03:03;;;;;;;18.90;13.00;;;;;;;;;;4996524;28;20029;-66
2023/02/17 09:05:28;;;;;;;22.05;13.85;;;;;;;;;;4996262;28;20485;-66
2023/02/17 09:07:53;;;;;;;25.30;14.95;;;;;;;;;;4994976;28;20034;-66
2023/02/17 09:10:19;;;;;;;21.10;13.32;;;;;;;;;;4995895;28;20069;-65
2023/02/17 09:12:44;;;;;;;20.63;13.73;;;;;;;;;;4996010;28;20374;-66
2023/02/17 09:15:09;;;;;;;21.20;12.73;;;;;;;;;;4996260;28;20022;-66
2023/02/17 09:17:39;;;;;;;19.90;12.45;;;;;;;;;;4996020;28;20034;-66
2023/02/17 09:20:05;;;;;;;20.65;12.85;;;;;;;;;;4996055;28;20026;-66
2023/02/17 09:22:31;;;;;;;21.08;13.00;;;;;;;;;;4996219;28;20065;-66
2023/02/17 09:24:56;;;;;;;21.65;13.85;;;;;;;;;;4996141;28;20050;-66
2023/02/17 09:27:21;;;;;;;18.75;11.68;;;;;;;;;;4994598;28;20474;-66
2023/02/17 09:29:47;;;;;;;20.15;12.55;;;;;;;;;;4978256;28;20053;-66
2023/02/17 09:32:12;;;;;;;17.90;12.35;;;;;;;;;;4996035;28;20042;-66
2023/02/17 09:34:38;;;;;;;20.17;13.27;;;;;;;;;;4995908;28;20041;-66
2023/02/17 09:37:03;;;;;;;18.98;12.70;;;;;;;;;;4995660;28;20030;-66
2023/02/17 09:39:28;;;;;;;17.40;11.55;;;;;;;;;;4995604;28;20501;-66
2023/02/17 09:41:55;;;;;;;17.60;10.82;;;;;;;;;;4995588;28;20030;-66
2023/02/17 09:44:24;;;;;;;14.57;10.50;;;;;;;;;;4995766;28;20038;-66
2023/02/17 09:47:10;;;;;;;15.02;9.63;;;;;;;;;;4996019;28;20034;-66
2023/02/17 09:49:38;;;;;;;16.92;11.45;;;;;;;;;;4994819;28;20529;-66
2023/02/17 09:52:04;;;;;;;16.65;11.20;;;;;;;;;;4995390;28;20481;-66
2023/02/17 09:54:35;;;;;;;11.98;7.82;;;;;;;;;;4995268;28;20037;-66
2023/02/17 09:57:02;;;;;;;15.93;10.20;;;;;;;;;;4995562;28;20054;-66
2023/02/17 09:59:40;;;;;;;16.50;11.15;;;;;;;;;;4995548;28;20019;-65
2023/02/17 10:02:10;;;;;;;17.98;10.70;;;;;;;;;;4995231;28;20077;-66
2023/02/17 10:04:38;;;;;;;12.45;7.90;;;;;;;;;;4977627;28;20054;-66
2023/02/17 10:07:08;;;;;;;15.63;10.88;;;;;;;;;;4995071;28;20073;-66
2023/02/17 10:09:44;;;;;;;13.05;7.93;;;;;;;;;;4995066;28;20040;-66
2023/02/17 10:12:27;;;;;;;19.13;11.73;;;;;;;;;;4995510;28;20541;-66
2023/02/17 10:15:02;;;;;;;16.85;10.38;;;;;;;;;;4977604;28;20049;-66
2023/02/17 10:17:30;;;;;;;14.23;9.73;;;;;;;;;;4995448;28;20085;-66
2023/02/17 10:20:15;;;;;;;14.00;9.02;;;;;;;;;;4995434;28;20030;-65
2023/02/17 10:22:46;;;;;;;17.48;10.73;;;;;;;;;;4976881;28;20061;-66
2023/02/17 10:25:15;;;;;;;16.20;10.43;;;;;;;;;;4978466;28;20038;-66
2023/02/17 10:27:42;;;;;;;16.63;10.23;;;;;;;;;;4994658;28;20073;-66
2023/02/17 10:30:26;;;;;;;15.32;10.65;;;;;;;;;;4994607;28;20073;-66
2023/02/17 10:32:59;;;;;;;16.35;10.93;;;;;;;;;;4994690;28;20548;-66
2023/02/17 10:35:27;;;;;;;11.95;7.88;;;;;;;;;;4977353;28;20106;-66
2023/02/17 10:37:56;;;;;;;4.57;3.70;;;;;;;;;;4995596;28;20033;-66
2023/02/17 10:40:24;;;;;;;15.70;9.77;;;;;;;;;;4978196;28;20374;-66
2023/02/17 10:42:50;;;;;;;13.77;9.35;;;;;;;;;;4994584;28;20034;-66
2023/02/17 10:45:23;;;;;;;10.25;7.47;;;;;;;;;;4977617;28;20494;-66
2023/02/17 10:47:49;;;;;;;9.95;6.43;;;;;;;;;;4977420;28;20069;-66
2023/02/17 10:50:19;;;;;;;6.03;4.07;;;;;;;;;;4994406;28;20069;-66
2023/02/17 10:52:44;;;;;;;12.65;8.85;;;;;;;;;;4994398;28;20041;-66
2023/02/17 10:55:22;;;;;;;13.95;8.48;;;;;;;;;;4994278;28;20034;-66
2023/02/17 10:57:49;;;;;;;10.00;7.25;;;;;;;;;;4994567;28;20034;-67
2023/02/17 11:00:16;;;;;;;13.15;9.75;;;;;;;;;;4994535;28;20022;-66
2023/02/17 11:02:43;;;;;;;11.77;7.35;;;;;;;;;;4994532;28;20149;-66
2023/02/17 11:05:20;;;;;;;14.63;10.05;;;;;;;;;;4994274;28;20422;-66
2023/02/17 11:07:45;;;;;;;13.48;8.98;;;;;;;;;;4994209;28;20096;-66
2023/02/17 11:10:19;;;;;;;17.95;9.98;;;;;;;;;;4994126;28;20478;-66
2023/02/17 11:12:45;;;;;;;13.80;8.70;;;;;;;;;;4976670;28;20034;-66
2023/02/17 11:15:14;;;;;;;12.52;8.85;;;;;;;;;;4994305;28;20113;-66
2023/02/17 11:17:40;;;;;;;10.70;6.68;;;;;;;;;;4994372;28;20022;-66
2023/02/17 11:20:05;;;;;;;12.55;8.80;;;;;;;;;;4994655;28;20026;-66
2023/02/17 11:22:37;;;;;;;11.10;7.43;;;;;;;;;;4993186;28;20031;-66
2023/02/17 11:25:05;;;;;;;12.10;7.40;;;;;;;;;;4994275;28;20038;-66
2023/02/17 11:27:30;;;;;;;13.27;8.38;;;;;;;;;;4994291;28;20050;-66
2023/02/17 11:30:06;;;;;;;12.80;8.77;;;;;;;;;;4993722;28;20054;-66
2023/02/17 11:32:31;;;;;;;12.48;9.68;;;;;;;;;;4994235;28;20655;-66
2023/02/17 11:34:59;;;;;;;13.60;9.25;;;;;;;;;;4996347;28;20136;-66
2023/02/17 11:37:26;;;;;;;13.68;9.63;;;;;;;;;;4997907;28;20030;-66
2023/02/17 11:39:52;;;;;;;12.40;8.82;;;;;;;;;;4997840;28;20482;-66
2023/02/17 11:42:22;;;;;;;8.27;5.90;;;;;;;;;;4997807;28;20066;-66
2023/02/17 11:44:48;;;;;;;11.60;7.20;;;;;;;;;;4998088;28;20037;-66
2023/02/17 11:47:22;;;;;;;12.98;9.05;;;;;;;;;;4997950;28;20026;-66
2023/02/17 11:49:55;;;;;;;11.82;8.40;;;;;;;;;;5010400;23;20363;-63
2023/02/17 11:52:35;;;;;;;10.52;7.07;;;;;;;;;;5010199;23;20185;-64
2023/02/17 11:55:19;;;;;;;16.10;9.27;;;;;;;;;;4999476;28;20125;-63
2023/02/17 11:58:05;;;;;;;11.93;8.90;;;;;;;;;;5017160;28;20519;-63
2023/02/17 12:00:44;;;;;;;10.45;6.28;;;;;;;;;;5017342;28;20034;-63
2023/02/17 12:03:28;;;;;;;10.27;7.30;;;;;;;;;;5017062;28;20033;-63
2023/02/17 12:06:01;;;;;;;12.65;8.57;;;;;;;;;;5015766;28;20036;-63
2023/02/17 12:08:39;;;;;;;11.52;8.23;;;;;;;;;;5017497;28;20486;-64
2023/02/17 12:11:19;;;;;;;10.75;6.63;;;;;;;;;;4999392;28;20113;-64
2023/02/17 12:14:03;;;;;;;5.65;4.18;;;;;;;;;;5017185;28;20468;-64
2023/02/17 12:16:35;;;;;;;9.27;6.55;;;;;;;;;;4999558;28;20034;-64
2023/02/17 12:19:09;;;;;;;10.57;6.93;;;;;;;;;;5016714;28;20088;-63
2023/02/17 12:21:52;;;;;;;12.43;8.77;;;;;;;;;;5016978;28;20083;-63
2023/02/17 12:24:18;;;;;;;14.43;8.88;;;;;;;;;;5017165;28;20048;-64
2023/02/17 12:26:45;;;;;;;12.15;8.43;;;;;;;;;;5016817;28;20030;-63
2023/02/17 12:29:16;;;;;;;12.02;7.97;;;;;;;;;;5016541;28;20389;-63
2023/02/17 12:31:55;;;;;;;12.68;8.05;;;;;;;;;;4999246;28;20034;-63
2023/02/17 12:34:23;;;;;;;9.70;7.10;;;;;;;;;;5015923;28;20037;-64
2023/02/17 12:36:49;;;;;;;12.77;8.30;;;;;;;;;;5016696;28;20034;-63
2023/02/17 12:39:14;;;;;;;10.07;7.50;;;;;;;;;;5016607;28;20173;-63
2023/02/17 12:41:41;;;;;;;12.40;8.18;;;;;;;;;;5016579;28;20076;-63
2023/02/17 12:44:11;;;;;;;13.05;9.05;;;;;;;;;;5016279;28;20041;-64
2023/02/17 12:46:44;;;;;;;12.75;8.00;;;;;;;;;;4997981;28;20025;-63
2023/02/17 12:49:15;;;;;;;14.30;7.53;;;;;;;;;;5014939;28;20029;-64
2023/02/17 12:51:44;;;;;;;9.18;6.32;;;;;;;;;;5015895;28;20033;-63
2023/02/17 12:54:25;;;;;;;11.82;7.63;;;;;;;;;;5015279;28;20381;-64
2023/02/17 12:56:50;;;;;;;;;;;;;;;;;;5016990;28;20092;-64
2023/02/17 12:59:18;;;;;;;13.33;8.43;;;;;;;;;;5015122;28;19910;-63
2023/02/17 13:02:10;;;;;;;11.30;7.68;;;;;;;;;;4998447;28;20034;-64
2023/02/17 13:04:36;;;;;;;8.73;6.30;;;;;;;;;;5011385;28;20048;-63
2023/02/17 13:07:11;;;;;;;11.73;8.05;;;;;;;;;;5016419;28;20105;-64
2023/02/17 13:09:41;;;;;;;14.15;7.40;;;;;;;;;;4998219;28;20050;-64
2023/02/17 13:12:26;;;;;;;10.13;7.30;;;;;;;;;;5016041;28;20029;-64
2023/02/17 13:14:55;;;;;;;9.10;7.00;;;;;;;;;;4998761;28;20041;-64
2023/02/17 13:17:21;;;;;;;9.25;6.88;;;;;;;;;;5016071;28;20022;-63
2023/02/17 13:19:46;;;;;;;13.15;8.07;;;;;;;;;;4999007;28;20458;-63
2023/02/17 13:22:23;;;;;;;11.00;7.63;;;;;;;;;;5016450;28;20049;-63
2023/02/17 13:24:54;;;;;;;12.00;8.43;;;;;;;;;;4981783;28;20104;-63
2023/02/17 13:27:33;;;;;;;12.95;8.82;;;;;;;;;;5015678;28;20034;-63
2023/02/17 13:29:59;;;;;;;12.07;8.52;;;;;;;;;;5015678;28;20034;-63
2023/02/17 13:32:32;;;;;;;11.38;8.52;;;;;;;;;;4998498;28;20048;-65
2023/02/17 13:35:00;;;;;;;11.35;8.90;;;;;;;;;;5015760;28;20042;-66
2023/02/17 13:37:31;;;;;;;12.23;8.05;;;;;;;;;;5015574;28;20081;-66
2023/02/17 13:39:57;;;;;;;9.30;6.45;;;;;;;;;;5015521;28;20072;-66
2023/02/17 13:42:29;;;;;;;9.98;7.00;;;;;;;;;;5015184;28;20108;-66
2023/02/17 13:44:54;;;;;;;8.77;6.07;;;;;;;;;;4997580;28;20026;-66
2023/02/17 13:47:28;;;;;;;7.93;5.95;;;;;;;;;;4997510;28;20080;-66
2023/02/17 13:49:55;;;;;;;16.98;10.05;;;;;;;;;;5015309;28;20034;-66
2023/02/17 13:52:26;;;;;;;14.23;8.85;;;;;;;;;;5014835;28;20462;-66
2023/02/17 13:54:55;;;;;;;11.57;7.28;;;;;;;;;;4997431;28;20042;-66
2023/02/17 13:57:22;;;;;;;10.20;7.38;;;;;;;;;;5014787;28;20064;-66
2023/02/17 13:59:48;;;;;;;13.52;9.18;;;;;;;;;;5014846;28;20049;-66
2023/02/17 14:02:20;;;;;;;11.65;7.78;;;;;;;;;;4997258;28;20026;-66
2023/02/17 14:04:46;;;;;;;8.75;4.80;;;;;;;;;;4997263;28;20045;-66
2023/02/17 14:07:12;;;;;;;12.63;8.85;;;;;;;;;;4997730;28;20033;-66
2023/02/17 14:09:38;;;;;;;14.23;8.65;;;;;;;;;;5014675;28;20417;-66
2023/02/17 14:12:05;;;;;;;9.52;7.15;;;;;;;;;;5014647;28;20018;-66
2023/02/17 14:14:35;;;;;;;12.13;7.70;;;;;;;;;;5014644;28;20048;-66
2023/02/17 14:17:27;;;;;;;10.32;7.13;;;;;;;;;;4996991;28;20037;-66
2023/02/17 14:19:52;;;;;;;11.20;7.22;;;;;;;;;;5012651;28;20469;-67
2023/02/17 14:22:27;;;;;;;13.95;8.00;;;;;;;;;;5013119;28;20029;-67
2023/02/17 14:25:01;;;;;;;11.50;8.15;;;;;;;;;;5012498;28;20072;-67
2023/02/17 14:27:27;;;;;;;9.23;6.70;;;;;;;;;;4995424;28;20048;-66
2023/02/17 14:29:53;;;;;;;12.57;8.10;;;;;;;;;;4979080;28;20018;-67
2023/02/17 14:32:24;;;;;;;15.32;9.20;;;;;;;;;;4995300;28;20204;-66
2023/02/17 14:34:50;;;;;;;12.98;8.25;;;;;;;;;;4995279;28;20026;-66